.
WxDataArchive / Data Records for 2008-08-13
2008-08-12 August 2008 2008-08-14

Data Records for Wednesday, 13 August 2008

Time	Temp	Chill	HIndex	Humid	Dewpt	 Wind 	HiWind	WindDir	Rain 	Barom 
-----	----	-----	------	-----	-----	------	------	-------	-----	----- 
00:00	66.4	66.4	66.4	76	58.6	0	0	---	0.00	29.778 
00:05	66.4	66.4	66.4	76	58.6	0	0	---	0.00	29.780 
00:10	66.3	66.3	66.3	76	58.5	0	0	---	0.00	29.780 
00:15	66.3	66.3	66.3	77	58.9	0	0	---	0.00	29.780 
00:20	66.1	66.1	66.1	77	58.7	0	0	---	0.00	29.779 
00:25	66.1	66.1	66.1	77	58.7	0	0	---	0.00	29.779 
00:30	66.0	66.0	66.0	77	58.6	0	0	---	0.00	29.780 
00:35	65.8	65.8	65.8	77	58.4	0	0	---	0.00	29.779 
00:40	65.6	65.6	65.6	77	58.2	0	0	---	0.00	29.779 
00:45	65.5	65.5	65.5	78	58.5	0	0	---	0.00	29.779 
00:50	65.5	65.5	65.5	78	58.5	0	0	---	0.00	29.778 
00:55	65.2	65.2	65.2	79	58.5	0	0	---	0.00	29.778 
01:00	65.0	65.0	65.0	79	58.3	0	0	---	0.00	29.777 
01:05	64.8	64.8	64.8	80	58.5	0	0	---	0.00	29.774 
01:10	64.7	64.7	64.7	80	58.4	0	0	---	0.00	29.774 
01:15	64.5	64.5	64.5	80	58.2	0	0	---	0.00	29.772 
01:20	64.3	64.3	64.3	80	58.0	0	0	---	0.00	29.774 
01:25	64.2	64.2	64.2	80	57.9	0	0	---	0.00	29.773 
01:30	64.0	64.0	64.0	81	58.0	0	0	---	0.00	29.769 
01:35	63.9	63.9	63.9	81	57.9	0	0	---	0.00	29.768 
01:40	63.7	63.7	63.7	81	57.8	0	0	---	0.00	29.765 
01:45	63.5	63.5	63.5	82	57.9	0	0	---	0.00	29.764 
01:50	63.5	63.5	63.5	83	58.2	0	0	---	0.00	29.763 
01:55	63.4	63.4	63.4	83	58.1	0	0	---	0.00	29.763 
02:00	63.2	63.2	63.2	83	57.9	0	0	---	0.00	29.763 
02:05	63.2	63.2	63.2	83	57.9	0	0	---	0.00	29.764 
02:10	63.1	63.1	63.1	83	57.8	0	0	---	0.00	29.763 
02:15	63.1	63.1	63.1	83	57.8	0	0	---	0.00	29.761 
02:20	62.9	62.9	62.9	84	58.0	0	0	---	0.00	29.760 
02:25	62.9	62.9	62.9	84	58.0	0	0	---	0.00	29.759 
02:30	62.7	62.7	62.7	84	57.8	0	0	---	0.00	29.756 
02:35	62.6	62.6	62.6	84	57.7	0	0	---	0.00	29.756 
02:40	62.4	62.4	62.4	84	57.5	0	0	---	0.00	29.758 
02:45	62.4	62.4	62.4	84	57.5	0	0	---	0.00	29.757 
02:50	62.3	62.3	62.3	84	57.4	0	0	---	0.00	29.756 
02:55	62.1	62.1	62.1	85	57.5	0	0	---	0.00	29.756 
03:00	62.1	62.1	62.1	85	57.5	0	0	---	0.00	29.754 
03:05	62.0	62.0	62.0	85	57.4	0	0	---	0.00	29.755 
03:10	62.0	62.0	62.0	86	57.8	0	0	---	0.00	29.755 
03:15	61.8	61.8	61.8	86	57.6	0	0	---	0.00	29.755 
03:20	61.6	61.6	61.6	86	57.4	0	0	---	0.00	29.756 
03:25	61.6	61.6	61.6	86	57.4	0	0	---	0.00	29.755 
03:30	61.5	61.5	61.5	87	57.6	0	0	---	0.00	29.752 
03:35	61.3	61.3	61.3	87	57.4	0	0	---	0.00	29.753 
03:40	61.3	61.3	61.3	87	57.4	0	0	---	0.00	29.753 
03:45	61.2	61.2	61.2	88	57.6	0	0	---	0.00	29.751 
03:50	61.2	61.2	61.2	88	57.6	0	0	---	0.00	29.752 
03:55	61.2	61.2	61.2	88	57.6	0	0	---	0.00	29.752 
04:00	61.2	61.2	61.2	88	57.6	0	0	---	0.00	29.749 
04:05	61.2	61.2	61.2	89	57.9	0	0	---	0.00	29.749 
04:10	61.2	61.2	61.2	89	57.9	0	0	---	0.00	29.748 
04:15	61.3	61.3	61.3	89	58.0	0	0	---	0.00	29.747 
04:20	61.3	61.3	61.3	89	58.0	0	0	---	0.00	29.746 
04:25	61.3	61.3	61.3	89	58.0	0	0	---	0.00	29.746 
04:30	61.5	61.5	61.5	89	58.2	0	0	---	0.00	29.747 
04:35	61.5	61.5	61.5	89	58.2	0	0	---	0.00	29.747 
04:40	61.6	61.6	61.6	89	58.3	0	0	---	0.00	29.746 
04:45	61.6	61.6	61.6	88	58.0	0	0	---	0.00	29.745 
04:50	61.8	61.8	61.8	88	58.2	0	0	---	0.00	29.745 
04:55	61.8	61.8	61.8	88	58.2	0	0	---	0.00	29.746 
05:00	61.8	61.8	61.8	88	58.2	0	0	---	0.00	29.743 
05:05	61.8	61.8	61.8	87	57.9	0	0	---	0.00	29.745 
05:10	62.0	62.0	62.0	87	58.1	0	0	---	0.00	29.744 
05:15	62.0	62.0	62.0	86	57.8	0	0	---	0.00	29.744 
05:20	62.0	62.0	62.0	86	57.8	0	0	---	0.00	29.746 
05:25	62.0	62.0	62.0	86	57.8	0	0	---	0.00	29.747 
05:30	61.8	61.8	61.8	86	57.6	0	0	---	0.00	29.746 
05:35	61.8	61.8	61.8	86	57.6	0	0	---	0.00	29.744 
05:40	61.6	61.6	61.6	86	57.4	0	0	---	0.00	29.746 
05:45	61.5	61.5	61.5	86	57.3	0	0	---	0.00	29.744 
05:50	61.3	61.3	61.3	86	57.1	0	0	---	0.00	29.746 
05:55	61.3	61.3	61.3	86	57.1	0	0	---	0.00	29.747 
06:00	61.2	61.2	61.2	87	57.3	0	0	---	0.00	29.747 
06:05	61.2	61.2	61.2	87	57.3	0	0	---	0.00	29.751 
06:10	61.0	61.0	61.0	87	57.1	0	0	---	0.00	29.752 
06:15	61.0	61.0	61.0	87	57.1	0	0	---	0.00	29.753 
06:20	61.0	61.0	61.0	87	57.1	0	0	---	0.00	29.754 
06:25	61.0	61.0	61.0	87	57.1	0	0	---	0.00	29.753 
06:30	61.0	61.0	61.0	87	57.1	0	0	---	0.00	29.753 
06:35	61.0	61.0	61.0	87	57.1	0	0	---	0.00	29.753 
06:40	61.2	61.2	61.2	88	57.6	0	0	---	0.00	29.755 
06:45	61.3	61.3	61.3	88	57.7	0	0	---	0.00	29.757 
06:50	61.5	61.5	61.5	87	57.6	0	0	---	0.00	29.758 
06:55	61.8	61.8	61.8	86	57.6	0	0	---	0.00	29.761 
07:00	62.1	62.1	62.1	85	57.5	0	0	---	0.00	29.764 
07:05	62.4	62.4	62.4	84	57.5	0	0	---	0.00	29.768 
07:10	62.7	62.7	62.7	83	57.5	0	0	---	0.00	29.769 
07:15	62.9	62.9	62.9	83	57.7	0	0	---	0.00	29.769 
07:20	63.2	63.2	63.2	82	57.6	0	0	---	0.00	29.769 
07:25	63.4	63.4	63.4	82	57.8	0	0	---	0.00	29.770 
07:30	63.5	63.5	63.5	81	57.6	0	0	---	0.00	29.767 
07:35	63.9	63.9	63.9	79	57.3	0	0	---	0.00	29.767 
07:40	64.0	64.0	64.0	78	57.0	0	0	---	0.00	29.767 
07:45	64.3	64.3	64.3	78	57.3	0	0	---	0.00	29.768 
07:50	64.5	64.5	64.5	78	57.5	0	0	---	0.00	29.768 
07:55	64.5	64.5	64.5	77	57.1	0	0	---	0.00	29.768 
08:00	64.7	64.7	64.7	77	57.3	0	0	---	0.00	29.768 
08:05	65.0	65.0	65.0	77	57.6	0	0	---	0.00	29.769 
08:10	65.2	65.2	65.2	77	57.8	0	0	---	0.00	29.770 
08:15	65.3	65.3	65.3	76	57.5	0	0	---	0.00	29.771 
08:20	65.5	65.5	65.5	75	57.4	0	0	---	0.00	29.773 
08:25	65.6	65.6	65.6	75	57.5	0	1	270	0.00	29.773 
08:30	66.0	66.0	66.0	75	57.8	0	0	---	0.00	29.775 
08:35	66.1	66.1	66.1	75	57.9	0	0	---	0.00	29.775 
08:40	66.3	66.3	66.3	73	57.4	0	0	---	0.00	29.778 
08:45	66.4	66.4	66.4	72	57.1	0	0	---	0.00	29.780 
08:50	66.8	66.8	66.8	72	57.5	0	0	---	0.00	29.776 
08:55	66.9	66.9	66.9	71	57.2	0	1	270	0.00	29.772 
09:00	67.3	67.3	67.3	72	58.0	0	1	270	0.00	29.773 
09:05	67.6	67.6	67.6	70	57.5	0	0	---	0.00	29.778 
09:10	67.9	67.9	67.9	70	57.7	0	0	---	0.00	29.777 
09:15	68.1	68.1	68.1	68	57.1	0	1	270	0.00	29.778 
09:20	68.3	68.3	68.3	68	57.3	0	1	270	0.00	29.779 
09:25	68.6	68.6	68.6	66	56.8	0	0	---	0.00	29.778 
09:30	69.3	69.3	69.3	66	57.4	0	1	270	0.00	29.778 
09:35	69.8	69.8	69.8	63	56.6	0	1	270	0.00	29.779 
09:40	70.4	70.4	70.4	64	57.6	0	1	270	0.00	29.780 
09:45	71.3	71.3	71.3	59	56.2	0	1	270	0.00	29.782 
09:50	72.0	72.0	72.0	55	54.9	0	1	270	0.00	29.781 
09:55	72.7	72.7	72.7	55	55.6	0	2	270	0.00	29.780 
10:00	73.5	73.5	73.5	54	55.8	0	2	270	0.00	29.779 
10:05	74.2	74.2	74.2	54	56.5	0	2	248	0.00	29.780 
10:10	74.7	74.7	74.7	53	56.4	0	2	292	0.00	29.777 
10:15	74.6	74.6	74.6	54	56.8	0	1	292	0.00	29.779 
10:20	74.6	74.6	74.6	52	55.8	0	3	292	0.00	29.780 
10:25	74.2	74.2	74.2	49	53.8	1	3	0	0.00	29.781 
10:30	73.9	73.9	73.9	48	53.0	1	4	270	0.00	29.782 
10:35	73.7	73.7	73.7	48	52.8	0	1	270	0.00	29.782 
10:40	73.5	73.5	73.5	48	52.6	0	1	270	0.00	29.782 
10:45	73.5	73.5	73.5	45	50.8	0	2	270	0.00	29.782 
10:50	73.5	73.5	73.5	45	50.8	0	1	270	0.00	29.782 
10:55	73.5	73.5	73.5	47	52.0	0	1	270	0.00	29.783 
11:00	73.5	73.5	73.5	48	52.6	0	1	270	0.00	29.783 
11:05	73.3	73.3	73.3	47	51.8	0	1	270	0.00	29.783 
11:10	73.3	73.3	73.3	50	53.5	0	1	270	0.00	29.784 
11:15	73.3	73.3	73.3	49	53.0	0	1	270	0.00	29.784 
11:20	73.3	73.3	73.3	50	53.5	0	3	270	0.00	29.784 
11:25	73.3	73.3	73.3	49	53.0	0	1	45	0.00	29.785 
11:30	73.3	73.3	73.3	51	54.1	0	1	45	0.00	29.787 
11:35	73.3	73.3	73.3	50	53.5	0	1	45	0.00	29.787 
11:40	73.5	73.5	73.5	52	54.8	0	1	45	0.00	29.786 
11:45	73.7	73.7	73.7	51	54.4	0	1	45	0.00	29.786 
11:50	74.0	74.0	74.0	50	54.2	0	3	45	0.00	29.784 
11:55	74.9	74.9	74.9	55	57.6	0	2	45	0.00	29.782 
12:00	75.8	75.8	78.0	52	56.9	0	2	45	0.00	29.779 
12:05	76.7	76.7	78.4	49	56.1	0	2	45	0.00	29.780 
12:10	77.0	77.0	78.5	48	55.8	1	3	90	0.00	29.779 
12:15	77.2	77.2	78.7	49	56.5	1	3	90	0.00	29.778 
12:20	77.2	77.2	78.6	47	55.4	0	4	270	0.00	29.779 
12:25	77.6	77.6	78.8	47	55.8	1	3	135	0.00	29.777 
12:30	77.4	77.4	78.7	46	55.0	0	2	45	0.00	29.778 
12:35	77.0	77.0	78.5	47	55.2	0	2	45	0.00	29.777 
12:40	76.8	76.8	78.4	48	55.6	0	2	45	0.00	29.773 
12:45	76.5	76.5	78.3	49	55.9	1	3	315	0.00	29.772 
12:50	76.1	76.1	78.1	50	56.1	0	2	315	0.00	29.773 
12:55	76.0	76.0	78.1	50	56.0	1	2	315	0.00	29.773 
13:00	76.0	76.0	78.1	53	57.6	0	1	315	0.00	29.769 
13:05	76.1	76.1	78.1	53	57.7	0	1	315	0.00	29.771 
13:10	76.5	76.5	78.3	51	57.0	0	3	315	0.00	29.767 
13:15	76.8	76.8	78.5	52	57.8	0	1	315	0.00	29.766 
13:20	76.7	76.7	78.4	50	56.6	0	2	315	0.00	29.766 
13:25	76.7	76.7	78.5	52	57.7	0	2	315	0.00	29.766 
13:30	77.0	77.0	78.6	51	57.5	1	2	292	0.00	29.764 
13:35	77.0	77.0	78.7	52	58.0	0	2	292	0.00	29.764 
13:40	77.6	77.6	79.0	50	57.5	0	3	292	0.00	29.762 
13:45	77.7	77.7	79.0	50	57.6	0	3	292	0.00	29.763 
13:50	77.6	77.6	79.0	50	57.5	0	1	292	0.00	29.760 
13:55	77.6	77.6	79.0	51	58.0	1	2	270	0.00	29.757 
14:00	77.7	77.7	78.9	48	56.4	0	2	270	0.00	29.753 
14:05	77.7	77.7	78.9	48	56.4	1	2	270	0.00	29.754 
14:10	77.4	77.4	78.8	50	57.3	0	1	315	0.00	29.754 
14:15	77.2	77.2	78.7	51	57.6	0	2	315	0.00	29.755 
14:20	77.2	77.2	78.8	53	58.7	0	1	315	0.00	29.751 
14:25	77.6	77.6	79.0	52	58.6	0	1	315	0.00	29.749 
14:30	77.6	77.6	79.0	50	57.5	0	1	315	0.00	29.749 
14:35	77.6	77.6	79.0	50	57.5	0	2	315	0.00	29.749 
14:40	77.4	77.4	78.9	52	58.4	0	1	315	0.00	29.749 
14:45	77.0	77.0	78.6	51	57.5	0	2	315	0.00	29.749 
14:50	77.0	77.0	78.7	54	59.1	0	2	315	0.00	29.749 
14:55	76.8	76.8	78.5	53	58.4	0	2	315	0.00	29.746 
15:00	77.4	77.4	79.0	54	59.4	1	2	315	0.00	29.743 
15:05	77.4	77.4	78.9	51	57.8	1	4	292	0.00	29.744 
15:10	76.8	76.8	78.5	52	57.8	1	3	292	0.00	29.746 
15:15	76.7	76.7	78.5	53	58.3	1	3	292	0.00	29.745 
15:20	75.6	75.6	77.9	50	55.6	2	9	292	0.00	29.753 
15:25	73.3	73.3	73.3	54	55.6	1	4	22	0.00	29.758 
15:30	71.5	71.5	71.5	65	59.1	1	4	292	0.00	29.762 
15:35	68.4	68.4	68.4	75	60.2	1	2	315	0.02	29.768 
15:40	66.4	66.4	66.4	80	60.0	0	1	315	0.00	29.772 
15:45	65.3	65.3	65.3	84	60.3	0	3	270	0.01	29.775 
15:50	64.5	64.5	64.5	85	59.9	0	1	270	0.00	29.775 
15:55	63.9	63.9	63.9	86	59.6	1	3	270	0.00	29.778 
16:00	63.5	63.5	63.5	87	59.6	1	2	315	0.00	29.778 
16:05	63.2	63.2	63.2	87	59.3	0	2	315	0.00	29.779 
16:10	63.1	63.1	63.1	86	58.8	1	2	315	0.00	29.779 
16:15	62.9	62.9	62.9	86	58.6	0	2	315	0.01	29.779 
16:20	62.9	62.9	62.9	86	58.6	0	1	315	0.00	29.779 
16:25	62.9	62.9	62.9	86	58.6	0	1	315	0.00	29.778 
16:30	62.9	62.9	62.9	87	59.0	0	1	315	0.00	29.778 
16:35	62.9	62.9	62.9	87	59.0	0	0	---	0.00	29.777 
16:40	62.9	62.9	62.9	88	59.3	0	0	---	0.00	29.775 
16:45	62.9	62.9	62.9	88	59.3	0	0	---	0.00	29.772 
16:50	63.1	63.1	63.1	88	59.5	0	0	---	0.00	29.770 
16:55	63.4	63.4	63.4	88	59.8	0	0	---	0.00	29.770 
17:00	63.5	63.5	63.5	88	59.9	0	0	---	0.00	29.767 
17:05	63.9	63.9	63.9	88	60.3	0	0	---	0.00	29.766 
17:10	64.0	64.0	64.0	87	60.0	0	0	---	0.00	29.764 
17:15	64.2	64.2	64.2	86	59.9	0	0	---	0.00	29.763 
17:20	64.3	64.3	64.3	85	59.7	0	1	315	0.00	29.763 
17:25	64.5	64.5	64.5	85	59.9	0	0	---	0.00	29.763 
17:30	64.5	64.5	64.5	85	59.9	0	0	---	0.00	29.761 
17:35	64.7	64.7	64.7	85	60.1	0	0	---	0.00	29.761 
17:40	64.7	64.7	64.7	86	60.4	0	0	---	0.00	29.759 
17:45	64.8	64.8	64.8	86	60.5	0	0	---	0.00	29.759 
17:50	64.8	64.8	64.8	86	60.5	0	0	---	0.00	29.759 
17:55	65.0	65.0	65.0	85	60.4	0	0	---	0.00	29.760 
18:00	65.2	65.2	65.2	85	60.6	0	0	---	0.00	29.758 
18:05	65.5	65.5	65.5	86	61.2	0	0	---	0.00	29.754 
18:10	65.6	65.6	65.6	86	61.3	0	0	---	0.00	29.753 
18:15	65.8	65.8	65.8	86	61.5	0	0	---	0.00	29.754 
18:20	66.0	66.0	66.0	86	61.7	0	0	---	0.00	29.751 
18:25	66.0	66.0	66.0	85	61.4	0	0	---	0.00	29.751 
18:30	66.0	66.0	66.0	85	61.4	0	0	---	0.00	29.752 
18:35	65.8	65.8	65.8	84	60.8	0	0	---	0.00	29.754 
18:40	66.0	66.0	66.0	85	61.4	0	0	---	0.00	29.754 
18:45	65.8	65.8	65.8	85	61.2	0	0	---	0.00	29.755 
18:50	65.8	65.8	65.8	85	61.2	0	0	---	0.00	29.755 
18:55	65.8	65.8	65.8	85	61.2	0	0	---	0.00	29.757 
19:00	65.6	65.6	65.6	84	60.6	0	0	---	0.00	29.758 
19:05	65.6	65.6	65.6	85	61.0	0	0	---	0.00	29.756 
19:10	65.6	65.6	65.6	84	60.6	0	0	---	0.00	29.756 
19:15	65.6	65.6	65.6	84	60.6	0	0	---	0.00	29.756 
19:20	65.6	65.6	65.6	84	60.6	0	0	---	0.00	29.756 
19:25	65.8	65.8	65.8	85	61.2	0	0	---	0.00	29.757 
19:30	65.8	65.8	65.8	85	61.2	0	0	---	0.00	29.758 
19:35	65.8	65.8	65.8	85	61.2	0	0	---	0.00	29.758 
19:40	65.8	65.8	65.8	85	61.2	0	0	---	0.00	29.759 
19:45	65.6	65.6	65.6	85	61.0	0	0	---	0.00	29.759 
19:50	65.5	65.5	65.5	86	61.2	0	0	---	0.00	29.759 
19:55	65.5	65.5	65.5	87	61.5	0	0	---	0.00	29.758 
20:00	65.2	65.2	65.2	87	61.2	0	0	---	0.00	29.760 
20:05	65.0	65.0	65.0	87	61.0	0	0	---	0.00	29.760 
20:10	65.0	65.0	65.0	88	61.4	0	0	---	0.00	29.762 
20:15	64.8	64.8	64.8	88	61.2	0	0	---	0.00	29.762 
20:20	64.7	64.7	64.7	88	61.1	0	0	---	0.00	29.765 
20:25	64.7	64.7	64.7	89	61.4	0	0	---	0.00	29.767 
20:30	64.7	64.7	64.7	89	61.4	0	0	---	0.00	29.769 
20:35	64.7	64.7	64.7	89	61.4	0	0	---	0.00	29.770 
20:40	64.7	64.7	64.7	90	61.7	0	0	---	0.00	29.772 
20:45	64.7	64.7	64.7	90	61.7	0	0	---	0.00	29.772 
20:50	64.7	64.7	64.7	90	61.7	0	0	---	0.00	29.773 
20:55	64.7	64.7	64.7	89	61.4	0	0	---	0.00	29.774 
21:00	64.7	64.7	64.7	89	61.4	0	0	---	0.00	29.778 
21:05	64.7	64.7	64.7	89	61.4	0	0	---	0.00	29.775 
21:10	64.5	64.5	64.5	89	61.2	0	0	---	0.00	29.775 
21:15	64.5	64.5	64.5	89	61.2	0	0	---	0.00	29.777 
21:20	64.5	64.5	64.5	90	61.5	0	0	---	0.00	29.780 
21:25	64.5	64.5	64.5	90	61.5	0	0	---	0.00	29.781 
21:30	64.3	64.3	64.3	90	61.3	0	0	---	0.00	29.782 
21:35	64.3	64.3	64.3	90	61.3	0	0	---	0.00	29.782 
21:40	64.3	64.3	64.3	90	61.3	0	0	---	0.00	29.782 
21:45	64.5	64.5	64.5	91	61.8	0	0	---	0.00	29.782 
21:50	64.5	64.5	64.5	91	61.8	0	0	---	0.00	29.782 
21:55	64.5	64.5	64.5	91	61.8	0	0	---	0.00	29.782 
22:00	64.5	64.5	64.5	91	61.8	0	0	---	0.00	29.782 
22:05	64.5	64.5	64.5	91	61.8	0	0	---	0.00	29.783 
22:10	64.5	64.5	64.5	91	61.8	0	0	---	0.00	29.784 
22:15	64.5	64.5	64.5	91	61.8	0	0	---	0.00	29.785 
22:20	64.5	64.5	64.5	91	61.8	0	0	---	0.00	29.785 
22:25	64.5	64.5	64.5	91	61.8	0	0	---	0.00	29.784 
22:30	64.5	64.5	64.5	91	61.8	0	0	---	0.00	29.784 
22:35	64.5	64.5	64.5	91	61.8	0	0	---	0.00	29.784 
22:40	64.3	64.3	64.3	91	61.6	0	0	---	0.00	29.783 
22:45	64.3	64.3	64.3	92	61.9	0	0	---	0.00	29.784 
22:50	64.2	64.2	64.2	92	61.8	0	0	---	0.00	29.784 
22:55	64.2	64.2	64.2	92	61.8	0	0	---	0.00	29.785 
23:00	64.2	64.2	64.2	92	61.8	0	0	---	0.00	29.786 
23:05	64.2	64.2	64.2	92	61.8	0	0	---	0.00	29.783 
23:10	64.0	64.0	64.0	92	61.6	0	0	---	0.00	29.783 
23:15	63.9	63.9	63.9	92	61.5	0	0	---	0.00	29.782 
23:20	63.7	63.7	63.7	92	61.3	0	0	---	0.00	29.782 
23:25	63.5	63.5	63.5	92	61.1	0	0	---	0.00	29.781 
23:30	63.4	63.4	63.4	92	61.0	0	0	---	0.00	29.783 
23:35	63.2	63.2	63.2	92	60.8	0	0	---	0.00	29.785 
23:40	63.1	63.1	63.1	92	60.7	0	0	---	0.00	29.786 
23:45	63.1	63.1	63.1	92	60.7	0	0	---	0.00	29.785 
23:50	62.9	62.9	62.9	93	60.8	0	0	---	0.00	29.784 
23:55	62.9	62.9	62.9	93	60.8	0	0	---	0.00	29.783 

CoCoRaHS
IN-AL-39
A2 Web Hosting
Creative Commons License
GoDaddy
Look for:

loaded 2017-10-19 12:40:50 • last modified 2010-11-18 10:43:29
Privacy PolicyDisclaimer
• wx.awcolley.com is powered by PmWiki v.2002016 •
• all content (unless otherwise noted) © 2017 A W Colley